C. Innovator — 3FGA2 — position and weather

sailwx.info

Track history (hours):
 
Tides and Currents Weather Stations Pressure Air Temp Water Temp Dewpoint Dewpoint Depression Visibility Wind Speed Wind Dir Waves Ship Positions

C. Innovator

Last reported at 2018-Jan-21 16:20 UTC. Time now 2018-Feb-19 06:07 UTC.
Position N 25°22' E 123°06'.
Warning: this ship's position is 28 days out of date.

Length 333 m; draft 20.8 m.

Type: Ship. MMSI: 373838000.

Date/timePositionNaut miles runAvg speedWind from/ knotsBaromVisibWave heightAir tempDewpointWater temp
2018-Jan-21 16:20N 25°22' E 123°06'514.4
2018-Jan-21 16:00N 25°17' E 123°04'714.5
2018-Jan-21 15:30N 25°10' E 123°02'714.8
2018-Jan-21 15:01N 25°03' E 122°60'815.1
2018-Jan-21 14:30N 24°56' E 122°57'815.4
2018-Jan-21 14:00N 24°48' E 122°55'815.3
2018-Jan-21 13:30N 24°41' E 122°53'715.0
2018-Jan-21 13:00N 24°34' E 122°51'815.3
2018-Jan-21 12:30N 24°26' E 122°48'816.0
2018-Jan-21 12:00N 24°18' E 122°47'815.7
2018-Jan-21 11:31N 24°11' E 122°46'815.4
2018-Jan-21 11:00N 24°03' E 122°45'715.0
2018-Jan-21 10:30N 23°56' E 122°44'714.9
2018-Jan-21 10:00N 23°48' E 122°42'714.5
2018-Jan-21 09:30N 23°41' E 122°41'714.2
2018-Jan-21 09:00N 23°34' E 122°40'  
Track history (hours):
 
Tides and Currents Weather Stations Pressure Air Temp Water Temp Dewpoint Dewpoint Depression Visibility Wind Speed Wind Dir Waves Ship Positions

C. Innovator

Last reported at 2018-Jan-21 16:20 UTC. Time now 2018-Feb-19 06:07 UTC.
Position N 25°22' E 123°06'.
Warning: this ship's position is 28 days out of date.

Length 333 m; draft 20.8 m.

Type: Ship. MMSI: 373838000.

Date/timePositionNaut miles runAvg speedWind from/ knotsBaromVisibWave heightAir tempDewpointWater temp
2018-Jan-21 16:20N 25°22' E 123°06'514.4
2018-Jan-21 16:00N 25°17' E 123°04'714.5
2018-Jan-21 15:30N 25°10' E 123°02'714.8
2018-Jan-21 15:01N 25°03' E 122°60'815.1
2018-Jan-21 14:30N 24°56' E 122°57'815.4
2018-Jan-21 14:00N 24°48' E 122°55'815.3
2018-Jan-21 13:30N 24°41' E 122°53'715.0
2018-Jan-21 13:00N 24°34' E 122°51'815.3
2018-Jan-21 12:30N 24°26' E 122°48'816.0
2018-Jan-21 12:00N 24°18' E 122°47'815.7
2018-Jan-21 11:31N 24°11' E 122°46'815.4
2018-Jan-21 11:00N 24°03' E 122°45'715.0
2018-Jan-21 10:30N 23°56' E 122°44'714.9
2018-Jan-21 10:00N 23°48' E 122°42'714.5
2018-Jan-21 09:30N 23°41' E 122°41'714.2
2018-Jan-21 09:00N 23°34' E 122°40'  

Dump ship's entire track history